createdAt,value
2018-11-29T00:00:44.512Z,935.10
2018-11-29T00:01:44.544Z,935.16
2018-11-29T00:02:44.664Z,935.11
2018-11-29T00:03:44.672Z,935.12
2018-11-29T00:04:44.600Z,935.08
2018-11-29T00:05:44.622Z,935.09
2018-11-29T00:06:44.640Z,935.01
2018-11-29T00:07:44.756Z,935.06
2018-11-29T00:08:44.729Z,935.11
2018-11-29T00:09:44.690Z,935.14
2018-11-29T00:10:44.714Z,935.13
2018-11-29T00:11:44.747Z,935.16
2018-11-29T00:12:44.852Z,935.14
2018-11-29T00:13:44.824Z,935.13
2018-11-29T00:14:44.791Z,935.19
2018-11-29T00:15:44.806Z,935.18
2018-11-29T00:16:44.829Z,935.23
2018-11-29T00:17:45.098Z,935.21
2018-11-29T00:18:44.866Z,935.25
2018-11-29T00:19:44.884Z,935.20
2018-11-29T00:20:44.885Z,935.21
2018-11-29T00:21:44.917Z,935.26
2018-11-29T00:22:45.040Z,935.26
2018-11-29T00:23:44.966Z,935.29
2018-11-29T00:24:44.979Z,935.32
2018-11-29T00:25:45.000Z,935.34
2018-11-29T00:26:45.017Z,935.37
2018-11-29T00:27:45.135Z,935.37
2018-11-29T00:28:45.087Z,935.41
2018-11-29T00:29:45.070Z,935.39
2018-11-29T00:30:45.094Z,935.42
2018-11-29T00:31:45.114Z,935.42
2018-11-29T00:32:45.231Z,935.43
2018-11-29T00:33:45.254Z,935.42
2018-11-29T00:34:45.172Z,935.40
2018-11-29T00:35:45.192Z,935.35
2018-11-29T00:36:45.206Z,935.39
2018-11-29T00:37:45.329Z,935.35
2018-11-29T00:38:45.284Z,935.35
2018-11-29T00:39:45.260Z,935.35
2018-11-29T00:40:45.284Z,935.36
2018-11-29T00:41:45.303Z,935.38
2018-11-29T00:42:45.569Z,935.43
2018-11-29T00:43:45.321Z,935.46
2018-11-29T00:44:45.356Z,935.46
2018-11-29T00:45:45.376Z,935.45
2018-11-29T00:46:45.394Z,935.43
2018-11-29T00:47:45.511Z,935.44
2018-11-29T00:48:45.429Z,935.41
2018-11-29T00:49:45.458Z,935.40
2018-11-29T00:50:45.476Z,935.40
2018-11-29T00:51:45.482Z,935.38
2018-11-29T00:52:45.606Z,935.38
2018-11-29T00:53:45.525Z,935.36
2018-11-29T00:54:45.542Z,935.39
2018-11-29T00:55:45.560Z,935.38
2018-11-29T00:56:45.582Z,935.36
2018-11-29T00:57:45.694Z,935.37
2018-11-29T00:58:45.640Z,935.37
2018-11-29T00:59:45.641Z,935.34
2018-11-29T01:00:45.654Z,935.32
2018-11-29T01:01:45.661Z,935.30
2018-11-29T01:02:45.947Z,935.31
2018-11-29T01:03:45.720Z,935.33
2018-11-29T01:04:45.735Z,935.27
2018-11-29T01:05:45.753Z,935.30
2018-11-29T01:06:45.774Z,935.30
2018-11-29T01:07:45.876Z,935.27
2018-11-29T01:08:45.803Z,935.29
2018-11-29T01:09:45.825Z,935.29
2018-11-29T01:10:45.845Z,935.27
2018-11-29T01:11:45.884Z,935.27
2018-11-29T01:12:45.987Z,935.27
2018-11-29T01:13:45.939Z,935.24
2018-11-29T01:14:45.926Z,935.20
2018-11-29T01:15:45.937Z,935.20
2018-11-29T01:16:45.958Z,935.18
2018-11-29T01:17:46.226Z,935.12
2018-11-29T01:18:45.997Z,935.14
2018-11-29T01:19:46.012Z,935.11
2018-11-29T01:20:46.031Z,935.11
2018-11-29T01:21:46.052Z,935.10
2018-11-29T01:22:46.157Z,935.11
2018-11-29T01:23:46.081Z,935.08
2018-11-29T01:24:46.113Z,935.06
2018-11-29T01:25:46.130Z,935.07
2018-11-29T01:26:46.145Z,935.04
2018-11-29T01:27:46.261Z,935.02
2018-11-29T01:28:46.183Z,934.98
2018-11-29T01:29:46.202Z,935.00
2018-11-29T01:30:46.220Z,934.98
2018-11-29T01:31:46.245Z,934.94
2018-11-29T01:32:46.355Z,934.93
2018-11-29T01:33:46.274Z,934.90
2018-11-29T01:34:46.279Z,934.91
2018-11-29T01:35:46.304Z,934.91
2018-11-29T01:36:46.319Z,935.01
2018-11-29T01:37:46.456Z,934.96
2018-11-29T01:38:46.374Z,934.97
2018-11-29T01:39:46.386Z,934.99
2018-11-29T01:40:46.388Z,934.98
2018-11-29T01:41:46.418Z,934.98
2018-11-29T01:42:46.540Z,934.99
2018-11-29T01:43:46.490Z,934.98
2018-11-29T01:44:46.482Z,934.99
2018-11-29T01:45:46.501Z,934.96
2018-11-29T01:46:46.522Z,934.97
2018-11-29T01:47:46.646Z,934.95
2018-11-29T01:48:46.570Z,934.96
2018-11-29T01:49:46.581Z,934.94
2018-11-29T01:50:46.599Z,934.89
2018-11-29T01:51:46.607Z,934.89
2018-11-29T01:52:46.722Z,934.88
2018-11-29T01:53:46.649Z,934.87
2018-11-29T01:54:46.673Z,934.88
2018-11-29T01:55:46.690Z,934.87
2018-11-29T01:56:46.708Z,934.86
2018-11-29T01:57:46.996Z,934.86
2018-11-29T01:58:46.750Z,934.85
2018-11-29T01:59:46.769Z,934.87
2018-11-29T02:00:46.781Z,934.86
2018-11-29T02:01:46.796Z,934.84
2018-11-29T02:02:47.067Z,934.86
2018-11-29T02:03:46.821Z,934.82
2018-11-29T02:04:46.855Z,934.85
2018-11-29T02:05:46.861Z,934.79
2018-11-29T02:06:46.899Z,934.74
2018-11-29T02:07:47.161Z,934.75
2018-11-29T02:08:46.950Z,934.75
2018-11-29T02:09:46.951Z,934.77
2018-11-29T02:10:46.964Z,934.72
2018-11-29T02:11:46.992Z,934.75
2018-11-29T02:12:47.259Z,934.73
2018-11-29T02:13:47.016Z,934.69
2018-11-29T02:14:47.046Z,934.69
2018-11-29T02:15:47.065Z,934.67
2018-11-29T02:16:47.065Z,934.68
2018-11-29T02:17:47.198Z,934.67
2018-11-29T02:18:47.118Z,934.64
2018-11-29T02:19:47.140Z,934.65
2018-11-29T02:20:47.156Z,934.62
2018-11-29T02:21:47.177Z,934.66
2018-11-29T02:22:47.292Z,934.63
2018-11-29T02:23:47.216Z,934.62
2018-11-29T02:24:47.225Z,934.60
2018-11-29T02:25:47.232Z,934.60
2018-11-29T02:26:47.268Z,934.61
2018-11-29T02:27:47.536Z,934.60
2018-11-29T02:28:47.307Z,934.57
2018-11-29T02:29:47.322Z,934.59
2018-11-29T02:30:47.346Z,934.58
2018-11-29T02:31:47.363Z,934.56
2018-11-29T02:32:47.485Z,934.54
2018-11-29T02:33:47.398Z,934.55
2018-11-29T02:34:47.421Z,934.54
2018-11-29T02:35:47.438Z,934.52
2018-11-29T02:36:47.456Z,934.52
2018-11-29T02:37:47.578Z,934.51
2018-11-29T02:38:47.494Z,934.47
2018-11-29T02:39:47.497Z,934.48
2018-11-29T02:40:47.549Z,934.45
2018-11-29T02:41:47.553Z,934.45
2018-11-29T02:42:47.568Z,934.45
2018-11-29T02:43:47.681Z,934.45
2018-11-29T02:44:47.591Z,934.43
2018-11-29T02:45:47.625Z,934.44
2018-11-29T02:46:47.645Z,934.41
2018-11-29T02:47:47.648Z,934.36
2018-11-29T02:48:47.778Z,934.30
2018-11-29T02:49:47.709Z,934.31
2018-11-29T02:50:47.719Z,934.28
2018-11-29T02:51:47.735Z,934.25
2018-11-29T03:01:32.090Z,934.20
2018-11-29T03:02:32.043Z,934.15
2018-11-29T03:03:32.050Z,934.17
2018-11-29T03:04:32.055Z,934.17
2018-11-29T03:05:32.186Z,934.19
2018-11-29T03:06:32.111Z,934.18
2018-11-29T03:07:32.134Z,934.16
2018-11-29T03:08:32.147Z,934.19
2018-11-29T03:09:32.172Z,934.17
2018-11-29T03:10:32.287Z,934.18
2018-11-29T03:11:32.186Z,934.16
2018-11-29T03:12:32.224Z,934.15
2018-11-29T03:13:32.243Z,934.16
2018-11-29T03:14:32.258Z,934.17
2018-11-29T03:15:32.380Z,934.16
2018-11-29T03:16:32.296Z,934.19
2018-11-29T03:17:32.317Z,934.17
2018-11-29T03:18:32.333Z,934.17
2018-11-29T03:19:32.350Z,934.16
2018-11-29T03:20:32.470Z,934.21
2018-11-29T03:21:32.383Z,934.18
2018-11-29T03:22:32.413Z,934.20
2018-11-29T03:23:32.425Z,934.16
2018-11-29T03:24:32.446Z,934.17
2018-11-29T03:25:32.566Z,934.18
2018-11-29T03:26:32.486Z,934.18
2018-11-29T03:27:32.507Z,934.16
2018-11-29T03:28:32.516Z,934.14
2018-11-29T03:29:32.539Z,934.14
2018-11-29T03:30:32.547Z,934.12
2018-11-29T03:31:32.679Z,934.12
2018-11-29T03:32:32.593Z,934.09
2018-11-29T03:33:32.618Z,934.09
2018-11-29T03:34:32.631Z,934.08
2018-11-29T03:35:32.634Z,934.07
2018-11-29T03:36:32.925Z,934.08
2018-11-29T03:37:32.671Z,934.05
2018-11-29T03:38:32.706Z,934.03
2018-11-29T03:39:32.722Z,934.00
2018-11-29T03:40:32.740Z,933.99
2018-11-29T03:41:32.851Z,933.96
2018-11-29T03:42:32.778Z,933.97
2018-11-29T03:43:32.807Z,933.92
2018-11-29T03:44:32.810Z,933.89
2018-11-29T03:45:32.819Z,933.85
2018-11-29T03:46:32.957Z,933.82
2018-11-29T03:47:32.874Z,933.81
2018-11-29T03:48:32.877Z,933.77
2018-11-29T03:49:32.912Z,933.74
2018-11-29T03:50:32.916Z,933.72
2018-11-29T03:51:34.325Z,933.73
2018-11-29T03:52:32.966Z,933.72
2018-11-29T03:53:32.979Z,933.68
2018-11-29T03:54:32.990Z,933.70
2018-11-29T03:55:33.009Z,933.70
2018-11-29T03:56:33.140Z,933.66
2018-11-29T03:57:33.054Z,933.68
2018-11-29T03:58:33.081Z,933.67
2018-11-29T03:59:33.100Z,933.66
2018-11-29T04:00:33.109Z,933.67
2018-11-29T04:01:33.233Z,933.63
2018-11-29T04:02:33.134Z,933.65
2018-11-29T04:03:33.172Z,933.59
2018-11-29T04:04:33.191Z,933.57
2018-11-29T04:05:33.204Z,933.57
2018-11-29T04:06:33.323Z,933.55
2018-11-29T04:07:33.243Z,933.56
2018-11-29T04:08:33.270Z,933.55
2018-11-29T04:09:33.281Z,933.51
2018-11-29T04:10:33.297Z,933.49
2018-11-29T04:11:33.567Z,933.46
2018-11-29T04:12:33.336Z,933.43
2018-11-29T04:13:33.349Z,933.45
2018-11-29T04:14:33.357Z,933.50
2018-11-29T04:15:33.395Z,933.46
2018-11-29T04:16:33.389Z,933.46
2018-11-29T04:17:40.405Z,933.45
2018-11-29T04:18:33.443Z,933.44
2018-11-29T04:19:33.466Z,933.44
2018-11-29T04:20:33.497Z,933.45
2018-11-29T04:21:33.497Z,933.44
2018-11-29T04:22:33.518Z,933.44
2018-11-29T04:23:33.641Z,933.44
2018-11-29T04:24:33.557Z,933.45
2018-11-29T04:25:33.573Z,933.41
2018-11-29T04:26:33.596Z,933.40
2018-11-29T04:27:33.613Z,933.41
2018-11-29T04:28:33.729Z,933.42
2018-11-29T04:29:33.636Z,933.39
2018-11-29T04:30:33.664Z,933.40
2018-11-29T04:31:33.670Z,933.39
2018-11-29T04:32:33.705Z,933.39
2018-11-29T04:33:33.957Z,933.37
2018-11-29T04:34:33.739Z,933.37
2018-11-29T04:35:33.757Z,933.36
2018-11-29T04:36:33.781Z,933.36
2018-11-29T04:37:33.800Z,933.39
2018-11-29T04:38:33.926Z,933.39
2018-11-29T04:39:33.832Z,933.36
2018-11-29T04:40:33.840Z,933.39
2018-11-29T04:41:33.869Z,933.38
2018-11-29T04:42:33.886Z,933.39
2018-11-29T04:43:34.001Z,933.34
2018-11-29T04:44:33.924Z,933.38
2018-11-29T04:45:33.954Z,933.37
2018-11-29T04:46:33.964Z,933.41
2018-11-29T04:47:33.972Z,933.37
2018-11-29T04:48:34.106Z,933.39
2018-11-29T04:49:34.017Z,933.41
2018-11-29T04:50:34.039Z,933.37
2018-11-29T04:51:34.054Z,933.40
2018-11-29T04:52:34.073Z,933.34
2018-11-29T04:53:34.222Z,933.38
2018-11-29T04:54:34.110Z,933.35
2018-11-29T04:55:34.125Z,933.35
2018-11-29T04:56:34.130Z,933.37
2018-11-29T04:57:34.149Z,933.32
2018-11-29T04:58:34.271Z,933.32
2018-11-29T04:59:34.190Z,933.39
2018-11-29T05:00:34.204Z,933.35
2018-11-29T05:01:34.248Z,933.30
2018-11-29T05:02:34.258Z,933.34
2018-11-29T05:03:34.373Z,933.31
2018-11-29T05:04:34.307Z,933.31
2018-11-29T05:05:34.316Z,933.32
2018-11-29T05:06:34.315Z,933.28
2018-11-29T05:07:34.351Z,933.30
2018-11-29T05:08:34.618Z,933.28
2018-11-29T05:09:34.384Z,933.27
2018-11-29T05:10:34.410Z,933.23
2018-11-29T05:11:34.428Z,933.23
2018-11-29T05:12:34.441Z,933.27
2018-11-29T05:13:34.459Z,933.29
2018-11-29T05:14:34.577Z,933.34
2018-11-29T05:15:34.501Z,933.32
2018-11-29T05:16:34.512Z,933.31
2018-11-29T05:17:34.521Z,933.33
2018-11-29T05:18:34.548Z,933.26
2018-11-29T05:19:34.674Z,933.27
2018-11-29T05:20:34.594Z,933.26
2018-11-29T05:21:34.610Z,933.27
2018-11-29T05:22:34.623Z,933.24
2018-11-29T05:23:34.649Z,933.23
2018-11-29T05:24:34.770Z,933.17
2018-11-29T05:25:34.682Z,933.18
2018-11-29T05:26:34.700Z,933.15
2018-11-29T05:27:34.720Z,933.13
2018-11-29T05:28:34.717Z,933.11
2018-11-29T05:29:34.856Z,933.12
2018-11-29T05:30:34.759Z,933.10
2018-11-29T05:31:34.788Z,933.08
2018-11-29T05:32:34.806Z,933.13
2018-11-29T05:33:34.814Z,933.13
2018-11-29T05:34:34.933Z,933.07
2018-11-29T05:35:34.866Z,933.05
2018-11-29T05:36:34.880Z,933.03
2018-11-29T05:37:35.698Z,933.03
2018-11-29T05:38:34.916Z,933.03
2018-11-29T05:39:35.039Z,933.01
2018-11-29T05:40:34.954Z,933.04
2018-11-29T05:41:34.977Z,933.02
2018-11-29T05:42:34.993Z,932.98
2018-11-29T05:43:35.014Z,933.03
2018-11-29T05:44:35.117Z,933.03
2018-11-29T05:45:35.058Z,933.00
2018-11-29T05:46:35.069Z,932.97
2018-11-29T05:47:35.087Z,933.02
2018-11-29T05:48:35.135Z,933.01
2018-11-29T05:49:35.223Z,933.03
2018-11-29T05:50:35.143Z,933.05
2018-11-29T05:51:35.159Z,933.03
2018-11-29T05:52:35.178Z,933.02
2018-11-29T05:53:35.193Z,933.02
2018-11-29T05:54:35.313Z,933.04
2018-11-29T05:55:35.231Z,933.03
2018-11-29T05:56:35.258Z,933.05
2018-11-29T05:57:35.272Z,933.04
2018-11-29T05:58:35.283Z,933.05
2018-11-29T05:59:35.393Z,933.00
2018-11-29T06:00:35.326Z,933.03
2018-11-29T06:01:35.326Z,933.02
2018-11-29T06:02:35.356Z,933.03
2018-11-29T06:03:35.377Z,933.04
2018-11-29T06:04:35.494Z,933.05
2018-11-29T06:05:35.419Z,933.04
2018-11-29T06:06:35.435Z,933.06
2018-11-29T06:07:35.452Z,933.05
2018-11-29T06:08:35.468Z,933.03
2018-11-29T06:09:35.574Z,932.99
2018-11-29T06:10:35.508Z,933.01
2018-11-29T06:11:35.523Z,933.00
2018-11-29T06:12:35.549Z,933.00
2018-11-29T06:13:35.568Z,933.03
2018-11-29T06:14:35.668Z,933.03
2018-11-29T06:15:35.599Z,933.02
2018-11-29T06:16:35.620Z,933.07
2018-11-29T06:17:35.635Z,933.10
2018-11-29T06:18:35.641Z,933.11
2018-11-29T06:19:35.928Z,933.07
2018-11-29T06:20:35.707Z,933.13
2018-11-29T06:21:35.712Z,933.08
2018-11-29T06:22:35.714Z,933.12
2018-11-29T06:23:35.744Z,933.11
2018-11-29T06:24:35.859Z,933.09
2018-11-29T06:25:35.782Z,933.13
2018-11-29T06:26:35.784Z,933.09
2018-11-29T06:27:35.822Z,933.10
2018-11-29T06:28:35.837Z,933.08
2018-11-29T06:29:35.960Z,933.09
2018-11-29T06:30:35.882Z,933.08
2018-11-29T06:31:35.898Z,933.09
2018-11-29T06:32:35.908Z,933.11
2018-11-29T06:33:35.930Z,933.14
2018-11-29T06:34:36.195Z,933.15
2018-11-29T06:35:35.966Z,933.15
2018-11-29T06:36:35.988Z,933.13
2018-11-29T06:37:36.002Z,933.13
2018-11-29T06:38:36.021Z,933.08
2018-11-29T06:39:36.136Z,933.05
2018-11-29T06:40:36.058Z,933.10
2018-11-29T06:41:36.075Z,933.04
2018-11-29T06:42:36.092Z,933.03
2018-11-29T06:43:36.115Z,933.11
2018-11-29T06:44:36.385Z,933.10
2018-11-29T06:45:36.133Z,933.07
2018-11-29T06:46:36.169Z,933.09
2018-11-29T06:47:36.175Z,933.08
2018-11-29T06:48:36.210Z,933.07
2018-11-29T06:49:36.473Z,933.07
2018-11-29T06:50:36.237Z,933.08
2018-11-29T06:51:36.261Z,933.09
2018-11-29T06:52:36.277Z,933.07
2018-11-29T06:53:36.280Z,933.09
2018-11-29T06:54:36.410Z,933.13
2018-11-29T06:55:36.330Z,933.17
2018-11-29T06:56:36.379Z,933.14
2018-11-29T06:57:36.367Z,933.15
2018-11-29T06:58:36.393Z,933.15
2018-11-29T06:59:36.509Z,933.16
2018-11-29T07:00:36.419Z,933.16
2018-11-29T07:01:36.445Z,933.16
2018-11-29T07:02:36.442Z,933.19
2018-11-29T07:03:36.480Z,933.21
2018-11-29T07:04:36.594Z,933.23
2018-11-29T07:05:36.502Z,933.24
2018-11-29T07:06:36.532Z,933.23
2018-11-29T07:07:36.551Z,933.24
2018-11-29T07:08:36.569Z,933.23
2018-11-29T07:09:36.691Z,933.24
2018-11-29T07:10:36.610Z,933.25
2018-11-29T07:11:36.625Z,933.25
2018-11-29T07:12:36.649Z,933.26
2018-11-29T07:13:36.661Z,933.28
2018-11-29T07:14:36.785Z,933.26
2018-11-29T07:15:36.695Z,933.25
2018-11-29T07:16:36.697Z,933.25
2018-11-29T07:17:36.727Z,933.24
2018-11-29T07:18:36.756Z,933.28
2018-11-29T07:19:36.877Z,933.30
2018-11-29T07:20:36.786Z,933.28
2018-11-29T07:21:36.805Z,933.25
2018-11-29T07:22:36.828Z,933.27
2018-11-29T07:23:36.843Z,933.26
2018-11-29T07:24:36.965Z,933.24
2018-11-29T07:25:36.863Z,933.25
2018-11-29T07:26:36.904Z,933.23
2018-11-29T07:27:36.920Z,933.24
2018-11-29T07:28:36.943Z,933.28
2018-11-29T07:29:37.207Z,933.29
2018-11-29T07:30:36.965Z,933.26
2018-11-29T07:31:36.989Z,933.28
2018-11-29T07:32:37.012Z,933.27
2018-11-29T07:33:37.029Z,933.24
2018-11-29T07:34:37.146Z,933.24
2018-11-29T07:35:37.049Z,933.16
2018-11-29T07:36:37.085Z,933.19
2018-11-29T07:37:37.095Z,933.20
2018-11-29T07:38:37.114Z,933.18
2018-11-29T07:39:37.391Z,933.17
2018-11-29T07:40:37.147Z,933.19
2018-11-29T07:41:37.176Z,933.15
2018-11-29T07:42:37.205Z,933.13
2018-11-29T07:43:37.196Z,933.16
2018-11-29T07:44:37.473Z,933.11
2018-11-29T07:45:37.228Z,933.11
2018-11-29T07:46:37.261Z,933.14
2018-11-29T07:47:37.279Z,933.18
2018-11-29T07:48:37.300Z,933.19
2018-11-29T07:49:37.416Z,933.17
2018-11-29T07:50:37.340Z,933.20
2018-11-29T07:51:37.353Z,933.21
2018-11-29T07:52:37.362Z,933.21
2018-11-29T07:53:37.390Z,933.24
2018-11-29T07:54:37.508Z,933.23
2018-11-29T07:55:37.426Z,933.25
2018-11-29T07:56:37.446Z,933.28
2018-11-29T07:57:37.456Z,933.27
2018-11-29T07:58:37.486Z,933.26
2018-11-29T07:59:37.501Z,933.31
2018-11-29T08:00:37.622Z,933.30
2018-11-29T08:01:37.536Z,933.30
2018-11-29T08:02:37.560Z,933.35
2018-11-29T08:03:37.574Z,933.29
2018-11-29T08:04:37.597Z,933.37
2018-11-29T08:05:37.711Z,933.38
2018-11-29T08:06:37.628Z,933.43
2018-11-29T08:07:37.647Z,933.44
2018-11-29T08:08:37.662Z,933.48
2018-11-29T08:09:37.686Z,933.51
2018-11-29T08:10:37.803Z,933.54
2018-11-29T08:11:37.723Z,933.56
2018-11-29T08:12:37.738Z,933.58
2018-11-29T08:13:37.756Z,933.54
2018-11-29T08:14:37.761Z,933.55
2018-11-29T08:15:38.941Z,933.56
2018-11-29T08:16:37.809Z,933.58
2018-11-29T08:17:37.821Z,933.61
2018-11-29T08:18:37.849Z,933.60
2018-11-29T08:19:37.864Z,933.60
2018-11-29T08:20:37.984Z,933.66
2018-11-29T08:21:37.901Z,933.62
2018-11-29T08:22:37.917Z,933.67
2018-11-29T08:23:37.942Z,933.71
2018-11-29T08:24:37.953Z,933.67
2018-11-29T08:25:38.222Z,933.68
2018-11-29T08:26:37.992Z,933.63
2018-11-29T08:27:38.006Z,933.61
2018-11-29T08:28:38.012Z,933.59
2018-11-29T08:29:38.049Z,933.61
2018-11-29T08:30:38.321Z,933.60
2018-11-29T08:31:38.069Z,933.60
2018-11-29T08:32:38.088Z,933.59
2018-11-29T08:33:38.121Z,933.65
2018-11-29T08:34:38.136Z,933.64
2018-11-29T08:35:38.312Z,933.64
2018-11-29T08:36:38.154Z,933.62
2018-11-29T08:37:38.192Z,933.62
2018-11-29T08:38:38.212Z,933.65
2018-11-29T08:39:38.260Z,933.66
2018-11-29T08:40:38.498Z,933.68
2018-11-29T08:41:38.262Z,933.64
2018-11-29T08:42:38.278Z,933.66
2018-11-29T08:43:38.297Z,933.64
2018-11-29T08:44:38.319Z,933.64
2018-11-29T08:45:38.335Z,933.65
2018-11-29T08:46:38.459Z,933.64
2018-11-29T08:47:38.373Z,933.69
2018-11-29T08:48:38.390Z,933.71
2018-11-29T08:49:38.408Z,933.71
2018-11-29T08:50:38.426Z,933.71
2018-11-29T08:51:38.701Z,933.76
2018-11-29T08:52:38.460Z,933.77
2018-11-29T08:53:38.484Z,933.73
2018-11-29T08:54:38.494Z,933.72
2018-11-29T08:55:38.522Z,933.73
2018-11-29T08:56:38.772Z,933.74
2018-11-29T08:57:38.587Z,933.73
2018-11-29T08:58:38.576Z,933.74
2018-11-29T08:59:39.416Z,933.71
2018-11-29T09:00:38.613Z,933.69
2018-11-29T09:01:38.879Z,933.71
2018-11-29T09:02:38.644Z,933.69
2018-11-29T09:03:38.660Z,933.68
2018-11-29T09:04:38.681Z,933.68
2018-11-29T09:05:38.699Z,933.65
2018-11-29T09:06:38.820Z,933.66
2018-11-29T09:07:38.739Z,933.69
2018-11-29T09:08:38.737Z,933.66
2018-11-29T09:09:38.768Z,933.68
2018-11-29T09:10:38.817Z,933.72
2018-11-29T09:11:38.912Z,933.73
2018-11-29T09:12:38.826Z,933.73
2018-11-29T09:13:38.850Z,933.68
2018-11-29T09:14:38.855Z,933.76
2018-11-29T09:15:38.887Z,933.71
2018-11-29T09:16:38.994Z,933.76
2018-11-29T09:17:38.920Z,933.81
2018-11-29T09:18:38.941Z,933.79
2018-11-29T09:19:38.957Z,933.83
2018-11-29T09:20:38.974Z,933.79
2018-11-29T09:21:39.240Z,933.76
2018-11-29T09:22:39.011Z,933.76
2018-11-29T09:23:39.030Z,933.75
2018-11-29T09:24:39.048Z,933.75
2018-11-29T09:25:39.051Z,933.74
2018-11-29T09:26:39.186Z,933.75
2018-11-29T09:27:39.103Z,933.78
2018-11-29T09:28:39.124Z,933.78
2018-11-29T09:29:39.142Z,933.80
2018-11-29T09:30:39.156Z,933.82
2018-11-29T09:31:39.418Z,933.84
2018-11-29T09:32:39.191Z,933.85
2018-11-29T09:33:39.206Z,933.84
2018-11-29T09:34:39.211Z,933.84
2018-11-29T09:35:39.241Z,933.87
2018-11-29T09:36:39.362Z,933.86
2018-11-29T09:37:39.273Z,933.88
2018-11-29T09:38:39.303Z,933.89
2018-11-29T09:39:39.317Z,933.91
2018-11-29T09:40:39.332Z,933.89
2018-11-29T09:41:39.444Z,933.93
2018-11-29T09:42:39.357Z,933.97
2018-11-29T09:43:39.386Z,933.98
2018-11-29T09:44:39.412Z,934.00
2018-11-29T09:45:39.429Z,933.99
2018-11-29T09:46:39.543Z,933.98
2018-11-29T09:47:39.462Z,933.97
2018-11-29T09:48:39.480Z,934.00
2018-11-29T09:49:39.499Z,934.02
2018-11-29T09:50:39.513Z,934.02
2018-11-29T09:51:39.636Z,934.02
2018-11-29T09:52:39.553Z,934.05
2018-11-29T09:53:39.616Z,934.01
2018-11-29T09:54:39.571Z,934.03
2018-11-29T09:55:39.599Z,934.08
2018-11-29T09:56:39.733Z,934.06
2018-11-29T09:57:39.629Z,934.06
2018-11-29T09:58:39.649Z,934.07
2018-11-29T09:59:39.680Z,934.10
2018-11-29T10:00:39.699Z,934.12
2018-11-29T10:01:39.816Z,934.09
2018-11-29T10:02:39.739Z,934.14
2018-11-29T10:03:39.737Z,934.13
2018-11-29T10:04:39.775Z,934.11
2018-11-29T10:05:39.788Z,934.16
2018-11-29T10:06:39.896Z,934.14
2018-11-29T10:07:39.829Z,934.13
2018-11-29T10:08:39.846Z,934.08
2018-11-29T10:09:39.866Z,934.11
2018-11-29T10:10:39.870Z,934.11
2018-11-29T10:11:39.983Z,934.11
2018-11-29T10:12:39.916Z,934.07
2018-11-29T10:13:46.048Z,934.08
2018-11-29T10:14:39.957Z,934.09
2018-11-29T10:15:39.974Z,934.13
2018-11-29T10:16:40.089Z,934.10
2018-11-29T10:17:39.988Z,934.13
2018-11-29T10:18:40.009Z,934.10
2018-11-29T10:19:40.049Z,934.14
2018-11-29T10:20:40.049Z,934.17
2018-11-29T10:21:40.183Z,934.21
2018-11-29T10:22:40.088Z,934.20
2018-11-29T10:23:40.118Z,934.19
2018-11-29T10:24:40.138Z,934.23
2018-11-29T10:25:40.135Z,934.23
2018-11-29T10:26:40.275Z,934.22
2018-11-29T10:27:40.186Z,934.23
2018-11-29T10:28:40.203Z,934.21
2018-11-29T10:29:40.228Z,934.21
2018-11-29T10:30:40.242Z,934.21
2018-11-29T10:31:40.514Z,934.23
2018-11-29T10:32:40.287Z,934.23
2018-11-29T10:33:40.298Z,934.22
2018-11-29T10:34:40.314Z,934.25
2018-11-29T10:35:40.328Z,934.25
2018-11-29T10:36:40.359Z,934.20
2018-11-29T10:37:40.627Z,934.21
2018-11-29T10:38:40.390Z,934.16
2018-11-29T10:39:40.485Z,934.20
2018-11-29T10:40:40.429Z,934.20
2018-11-29T10:41:40.444Z,934.21
2018-11-29T10:42:40.462Z,934.19
2018-11-29T10:43:40.583Z,934.16
2018-11-29T10:44:40.498Z,934.19
2018-11-29T10:45:40.506Z,934.19
2018-11-29T10:46:40.528Z,934.20
2018-11-29T10:47:40.554Z,934.16
2018-11-29T10:48:40.671Z,934.17
2018-11-29T10:49:40.588Z,934.10
2018-11-29T10:50:40.609Z,934.08
2018-11-29T10:51:40.631Z,934.11
2018-11-29T10:52:40.651Z,934.06
2018-11-29T10:53:40.761Z,934.09
2018-11-29T10:54:40.665Z,934.10
2018-11-29T10:55:40.688Z,934.11
2018-11-29T10:56:40.720Z,934.12
2018-11-29T10:57:40.733Z,934.13
2018-11-29T10:58:40.861Z,934.14
2018-11-29T10:59:40.770Z,934.17
2018-11-29T11:00:40.791Z,934.18
2018-11-29T11:01:40.806Z,934.18
2018-11-29T11:02:40.827Z,934.19
2018-11-29T11:03:40.945Z,934.16
2018-11-29T11:04:40.868Z,934.17
2018-11-29T11:05:40.882Z,934.17
2018-11-29T11:06:40.901Z,934.18
2018-11-29T11:07:40.918Z,934.15
2018-11-29T11:08:41.037Z,934.17
2018-11-29T11:09:40.942Z,934.15
2018-11-29T11:10:40.961Z,934.15
2018-11-29T11:11:40.989Z,934.12
2018-11-29T11:12:41.000Z,934.13
2018-11-29T11:13:41.126Z,934.11
2018-11-29T11:14:41.034Z,934.15
2018-11-29T11:15:41.049Z,934.18
2018-11-29T11:16:41.076Z,934.23
2018-11-29T11:17:41.100Z,934.23
2018-11-29T11:18:41.364Z,934.20
2018-11-29T11:19:41.135Z,934.24
2018-11-29T11:20:41.160Z,934.19
2018-11-29T11:21:41.179Z,934.21
2018-11-29T11:22:41.184Z,934.20
2018-11-29T11:23:41.452Z,934.22
2018-11-29T11:24:41.230Z,934.21
2018-11-29T11:25:41.242Z,934.19
2018-11-29T11:26:41.262Z,934.15
2018-11-29T11:27:41.282Z,934.17
2018-11-29T11:28:41.298Z,934.13
2018-11-29T11:29:41.414Z,934.13
2018-11-29T11:30:41.321Z,934.13
2018-11-29T11:31:41.340Z,934.12
2018-11-29T11:32:41.376Z,934.10
2018-11-29T11:33:41.393Z,934.15
2018-11-29T11:34:41.644Z,934.12
2018-11-29T11:35:41.419Z,934.13
2018-11-29T11:36:41.447Z,934.17
2018-11-29T11:37:41.459Z,934.20
2018-11-29T11:38:41.464Z,934.22
2018-11-29T11:39:41.605Z,934.22
2018-11-29T11:40:41.519Z,934.23
2018-11-29T11:41:41.532Z,934.22
2018-11-29T11:42:41.558Z,934.22
2018-11-29T11:43:41.578Z,934.20
2018-11-29T11:44:41.716Z,934.17
2018-11-29T11:45:41.608Z,934.14
2018-11-29T11:46:41.628Z,934.21
2018-11-29T11:47:41.650Z,934.19
2018-11-29T11:48:41.665Z,934.17
2018-11-29T11:49:41.929Z,934.19
2018-11-29T11:50:41.714Z,934.16
2018-11-29T11:51:41.723Z,934.20
2018-11-29T11:52:41.738Z,934.22
2018-11-29T11:53:41.752Z,934.19
2018-11-29T11:54:41.874Z,934.13
2018-11-29T11:55:41.876Z,934.10
2018-11-29T11:56:41.795Z,934.09
2018-11-29T11:57:41.832Z,934.10
2018-11-29T11:58:41.852Z,934.12
2018-11-29T11:59:41.987Z,934.14
2018-11-29T12:00:41.888Z,934.08
2018-11-29T12:01:41.938Z,934.06
2018-11-29T12:02:41.932Z,934.09
2018-11-29T12:03:41.945Z,934.07
2018-11-29T12:04:42.048Z,934.07
2018-11-29T12:05:41.981Z,934.05
2018-11-29T12:06:41.996Z,934.08
2018-11-29T12:07:41.997Z,934.05
2018-11-29T12:08:42.066Z,934.06
2018-11-29T12:09:42.176Z,934.12
2018-11-29T12:10:42.102Z,934.08
2018-11-29T12:11:42.070Z,934.10
2018-11-29T12:12:42.106Z,934.10
2018-11-29T12:13:42.124Z,934.10
2018-11-29T12:14:42.251Z,934.11
2018-11-29T12:15:42.150Z,934.10
2018-11-29T12:16:42.408Z,934.10
2018-11-29T12:17:42.199Z,934.13
2018-11-29T12:18:42.276Z,934.19
2018-11-29T12:19:42.340Z,934.15
2018-11-29T12:20:42.259Z,934.12
2018-11-29T12:21:42.316Z,934.11
2018-11-29T12:22:42.326Z,934.16
2018-11-29T12:23:42.302Z,934.18
2018-11-29T12:24:42.560Z,934.14
2018-11-29T12:25:42.355Z,934.16
2018-11-29T12:26:42.352Z,934.15
2018-11-29T12:27:42.383Z,934.10
2018-11-29T12:28:42.404Z,934.09
2018-11-29T12:29:42.428Z,934.07
2018-11-29T12:30:42.561Z,934.04
2018-11-29T12:31:42.483Z,934.04
2018-11-29T12:32:42.485Z,934.03
2018-11-29T12:33:42.493Z,934.02
2018-11-29T12:34:42.570Z,934.04
2018-11-29T12:35:42.629Z,934.02
2018-11-29T12:36:42.559Z,933.99
2018-11-29T12:37:42.592Z,933.94